sensor_id;sensor_type;location;lat;lon;timestamp;P1;durP1;ratioP1;P2;durP2;ratioP2
21886;SDS011;11108;49.988;8.182;2023-06-14T00:02:14;5.97;;;5.47;;
21886;SDS011;11108;49.988;8.182;2023-06-14T00:04:40;6.13;;;5.40;;
21886;SDS011;11108;49.988;8.182;2023-06-14T00:07:06;5.33;;;4.93;;
21886;SDS011;11108;49.988;8.182;2023-06-14T00:09:33;5.50;;;5.10;;
21886;SDS011;11108;49.988;8.182;2023-06-14T00:11:58;5.33;;;4.83;;
21886;SDS011;11108;49.988;8.182;2023-06-14T00:14:23;5.30;;;4.80;;
21886;SDS011;11108;49.988;8.182;2023-06-14T00:16:49;4.87;;;4.47;;
21886;SDS011;11108;49.988;8.182;2023-06-14T00:19:14;5.30;;;4.80;;
21886;SDS011;11108;49.988;8.182;2023-06-14T00:21:39;5.53;;;5.13;;
21886;SDS011;11108;49.988;8.182;2023-06-14T00:24:04;5.73;;;5.20;;
21886;SDS011;11108;49.988;8.182;2023-06-14T00:26:30;5.53;;;5.03;;
21886;SDS011;11108;49.988;8.182;2023-06-14T00:28:55;5.60;;;5.10;;
21886;SDS011;11108;49.988;8.182;2023-06-14T00:31:21;5.87;;;5.30;;
21886;SDS011;11108;49.988;8.182;2023-06-14T00:33:46;5.90;;;5.37;;
21886;SDS011;11108;49.988;8.182;2023-06-14T00:36:12;5.17;;;4.70;;
21886;SDS011;11108;49.988;8.182;2023-06-14T00:38:37;5.73;;;5.13;;
21886;SDS011;11108;49.988;8.182;2023-06-14T00:41:02;5.20;;;4.70;;
21886;SDS011;11108;49.988;8.182;2023-06-14T00:43:27;5.53;;;5.03;;
21886;SDS011;11108;49.988;8.182;2023-06-14T00:45:52;5.60;;;5.20;;
21886;SDS011;11108;49.988;8.182;2023-06-14T00:48:18;6.93;;;4.87;;
21886;SDS011;11108;49.988;8.182;2023-06-14T00:50:44;5.97;;;5.47;;
21886;SDS011;11108;49.988;8.182;2023-06-14T00:53:11;4.80;;;4.47;;
21886;SDS011;11108;49.988;8.182;2023-06-14T00:55:36;5.03;;;4.63;;
21886;SDS011;11108;49.988;8.182;2023-06-14T00:58:01;5.50;;;5.00;;
21886;SDS011;11108;49.988;8.182;2023-06-14T01:00:26;7.43;;;5.13;;
21886;SDS011;11108;49.988;8.182;2023-06-14T01:02:53;6.13;;;5.50;;
21886;SDS011;11108;49.988;8.182;2023-06-14T01:05:18;5.73;;;5.07;;
21886;SDS011;11108;49.988;8.182;2023-06-14T01:15:36;7.13;;;5.50;;
21886;SDS011;11108;49.988;8.182;2023-06-14T01:18:03;7.17;;;5.73;;
21886;SDS011;11108;49.988;8.182;2023-06-14T01:20:32;5.80;;;5.20;;
21886;SDS011;11108;49.988;8.182;2023-06-14T01:22:57;5.50;;;5.00;;
21886;SDS011;11108;49.988;8.182;2023-06-14T01:25:23;5.93;;;5.33;;
21886;SDS011;11108;49.988;8.182;2023-06-14T01:27:49;5.63;;;5.13;;
21886;SDS011;11108;49.988;8.182;2023-06-14T01:30:14;6.10;;;5.43;;
21886;SDS011;11108;49.988;8.182;2023-06-14T01:32:40;6.30;;;5.40;;
21886;SDS011;11108;49.988;8.182;2023-06-14T01:35:05;9.03;;;5.57;;
21886;SDS011;11108;49.988;8.182;2023-06-14T01:37:31;6.13;;;5.20;;
21886;SDS011;11108;49.988;8.182;2023-06-14T01:39:56;5.50;;;4.87;;
21886;SDS011;11108;49.988;8.182;2023-06-14T01:42:21;5.37;;;4.87;;
21886;SDS011;11108;49.988;8.182;2023-06-14T01:44:48;7.07;;;4.97;;
21886;SDS011;11108;49.988;8.182;2023-06-14T01:47:14;6.93;;;5.07;;
21886;SDS011;11108;49.988;8.182;2023-06-14T01:49:39;5.33;;;4.90;;
21886;SDS011;11108;49.988;8.182;2023-06-14T01:52:05;5.57;;;5.07;;
21886;SDS011;11108;49.988;8.182;2023-06-14T01:54:31;5.20;;;4.70;;
21886;SDS011;11108;49.988;8.182;2023-06-14T01:56:56;7.23;;;5.20;;
21886;SDS011;11108;49.988;8.182;2023-06-14T01:59:22;5.67;;;5.10;;
21886;SDS011;11108;49.988;8.182;2023-06-14T02:01:47;5.50;;;5.00;;
21886;SDS011;11108;49.988;8.182;2023-06-14T02:04:12;7.90;;;5.20;;
21886;SDS011;11108;49.988;8.182;2023-06-14T02:06:37;6.23;;;5.07;;
21886;SDS011;11108;49.988;8.182;2023-06-14T02:09:03;5.60;;;5.10;;
21886;SDS011;11108;49.988;8.182;2023-06-14T02:11:28;5.37;;;4.70;;
21886;SDS011;11108;49.988;8.182;2023-06-14T02:13:54;6.00;;;4.87;;
21886;SDS011;11108;49.988;8.182;2023-06-14T02:16:20;5.67;;;4.67;;
21886;SDS011;11108;49.988;8.182;2023-06-14T02:18:45;5.80;;;5.10;;
21886;SDS011;11108;49.988;8.182;2023-06-14T02:21:10;7.87;;;5.70;;
21886;SDS011;11108;49.988;8.182;2023-06-14T02:23:35;6.13;;;4.87;;
21886;SDS011;11108;49.988;8.182;2023-06-14T02:26:00;5.53;;;5.00;;
21886;SDS011;11108;49.988;8.182;2023-06-14T02:28:26;10.30;;;5.63;;
21886;SDS011;11108;49.988;8.182;2023-06-14T02:30:51;9.50;;;5.40;;
21886;SDS011;11108;49.988;8.182;2023-06-14T02:33:16;5.43;;;4.70;;
21886;SDS011;11108;49.988;8.182;2023-06-14T02:35:42;6.10;;;4.97;;
21886;SDS011;11108;49.988;8.182;2023-06-14T02:38:07;5.70;;;4.67;;
21886;SDS011;11108;49.988;8.182;2023-06-14T02:40:32;9.10;;;5.40;;
21886;SDS011;11108;49.988;8.182;2023-06-14T02:42:58;5.33;;;4.80;;
21886;SDS011;11108;49.988;8.182;2023-06-14T02:45:23;6.33;;;4.40;;
21886;SDS011;11108;49.988;8.182;2023-06-14T02:47:48;6.43;;;4.90;;
21886;SDS011;11108;49.988;8.182;2023-06-14T02:50:13;5.43;;;4.97;;
21886;SDS011;11108;49.988;8.182;2023-06-14T02:52:38;6.73;;;4.67;;
21886;SDS011;11108;49.988;8.182;2023-06-14T02:55:06;4.73;;;4.03;;
21886;SDS011;11108;49.988;8.182;2023-06-14T02:57:33;5.40;;;4.73;;
21886;SDS011;11108;49.988;8.182;2023-06-14T02:59:58;4.57;;;4.17;;
21886;SDS011;11108;49.988;8.182;2023-06-14T03:02:23;5.53;;;4.57;;
21886;SDS011;11108;49.988;8.182;2023-06-14T03:04:48;6.47;;;4.50;;
21886;SDS011;11108;49.988;8.182;2023-06-14T03:07:14;4.50;;;4.10;;
21886;SDS011;11108;49.988;8.182;2023-06-14T03:09:44;4.93;;;4.50;;
21886;SDS011;11108;49.988;8.182;2023-06-14T03:12:10;6.00;;;5.00;;
21886;SDS011;11108;49.988;8.182;2023-06-14T03:14:36;5.07;;;4.60;;
21886;SDS011;11108;49.988;8.182;2023-06-14T03:17:01;5.83;;;4.37;;
21886;SDS011;11108;49.988;8.182;2023-06-14T03:19:27;6.70;;;4.63;;
21886;SDS011;11108;49.988;8.182;2023-06-14T03:21:52;7.77;;;4.90;;
21886;SDS011;11108;49.988;8.182;2023-06-14T03:24:18;5.93;;;4.37;;
21886;SDS011;11108;49.988;8.182;2023-06-14T03:26:43;5.13;;;4.10;;
21886;SDS011;11108;49.988;8.182;2023-06-14T03:29:08;5.20;;;4.70;;
21886;SDS011;11108;49.988;8.182;2023-06-14T03:31:34;5.03;;;4.50;;
21886;SDS011;11108;49.988;8.182;2023-06-14T03:33:59;4.93;;;4.37;;
21886;SDS011;11108;49.988;8.182;2023-06-14T03:36:25;4.73;;;4.33;;
21886;SDS011;11108;49.988;8.182;2023-06-14T03:38:50;4.83;;;4.43;;
21886;SDS011;11108;49.988;8.182;2023-06-14T03:41:16;5.23;;;4.57;;
21886;SDS011;11108;49.988;8.182;2023-06-14T03:43:41;6.33;;;4.57;;
21886;SDS011;11108;49.988;8.182;2023-06-14T03:46:06;5.20;;;4.80;;
21886;SDS011;11108;49.988;8.182;2023-06-14T03:48:31;5.60;;;5.10;;
21886;SDS011;11108;49.988;8.182;2023-06-14T03:50:56;4.97;;;4.50;;
21886;SDS011;11108;49.988;8.182;2023-06-14T03:53:22;5.37;;;4.80;;
21886;SDS011;11108;49.988;8.182;2023-06-14T03:55:48;8.17;;;4.47;;
21886;SDS011;11108;49.988;8.182;2023-06-14T03:58:14;5.27;;;4.23;;
21886;SDS011;11108;49.988;8.182;2023-06-14T04:00:39;5.00;;;4.40;;
21886;SDS011;11108;49.988;8.182;2023-06-14T04:03:05;6.23;;;4.60;;
21886;SDS011;11108;49.988;8.182;2023-06-14T04:05:30;5.47;;;5.00;;
21886;SDS011;11108;49.988;8.182;2023-06-14T04:07:56;4.87;;;4.33;;
21886;SDS011;11108;49.988;8.182;2023-06-14T04:10:22;4.70;;;4.30;;
21886;SDS011;11108;49.988;8.182;2023-06-14T04:12:47;5.73;;;4.53;;
21886;SDS011;11108;49.988;8.182;2023-06-14T04:15:13;5.50;;;4.33;;
21886;SDS011;11108;49.988;8.182;2023-06-14T04:17:38;5.33;;;4.67;;
21886;SDS011;11108;49.988;8.182;2023-06-14T04:20:04;6.20;;;4.63;;
21886;SDS011;11108;49.988;8.182;2023-06-14T04:22:31;9.00;;;4.27;;
21886;SDS011;11108;49.988;8.182;2023-06-14T04:24:56;6.07;;;5.03;;
21886;SDS011;11108;49.988;8.182;2023-06-14T04:27:25;4.87;;;4.47;;
21886;SDS011;11108;49.988;8.182;2023-06-14T04:29:51;5.10;;;4.57;;
21886;SDS011;11108;49.988;8.182;2023-06-14T04:32:22;5.30;;;4.53;;
21886;SDS011;11108;49.988;8.182;2023-06-14T04:34:47;4.87;;;4.47;;
21886;SDS011;11108;49.988;8.182;2023-06-14T04:37:12;7.47;;;4.87;;
21886;SDS011;11108;49.988;8.182;2023-06-14T04:39:38;6.47;;;4.57;;
21886;SDS011;11108;49.988;8.182;2023-06-14T04:42:03;7.30;;;4.67;;
21886;SDS011;11108;49.988;8.182;2023-06-14T04:44:29;5.00;;;4.50;;
21886;SDS011;11108;49.988;8.182;2023-06-14T04:46:57;5.47;;;4.70;;
21886;SDS011;11108;49.988;8.182;2023-06-14T04:49:23;9.03;;;4.63;;
21886;SDS011;11108;49.988;8.182;2023-06-14T04:51:48;9.97;;;5.03;;
21886;SDS011;11108;49.988;8.182;2023-06-14T04:54:22;7.47;;;5.03;;
21886;SDS011;11108;49.988;8.182;2023-06-14T04:56:47;10.60;;;5.30;;
21886;SDS011;11108;49.988;8.182;2023-06-14T04:59:12;6.37;;;5.07;;
21886;SDS011;11108;49.988;8.182;2023-06-14T05:01:39;7.67;;;4.83;;
21886;SDS011;11108;49.988;8.182;2023-06-14T05:04:05;7.40;;;4.93;;
21886;SDS011;11108;49.988;8.182;2023-06-14T05:06:30;8.33;;;5.20;;
21886;SDS011;11108;49.988;8.182;2023-06-14T05:08:56;8.50;;;4.93;;
21886;SDS011;11108;49.988;8.182;2023-06-14T05:11:21;7.53;;;4.80;;
21886;SDS011;11108;49.988;8.182;2023-06-14T05:13:48;6.40;;;4.40;;
21886;SDS011;11108;49.988;8.182;2023-06-14T05:16:14;6.37;;;3.97;;
21886;SDS011;11108;49.988;8.182;2023-06-14T05:18:40;5.17;;;4.67;;
21886;SDS011;11108;49.988;8.182;2023-06-14T05:21:06;6.67;;;4.20;;
21886;SDS011;11108;49.988;8.182;2023-06-14T05:23:31;4.67;;;4.20;;
21886;SDS011;11108;49.988;8.182;2023-06-14T05:25:56;6.33;;;4.53;;
21886;SDS011;11108;49.988;8.182;2023-06-14T05:28:22;4.33;;;4.03;;
21886;SDS011;11108;49.988;8.182;2023-06-14T05:30:47;5.27;;;4.30;;
21886;SDS011;11108;49.988;8.182;2023-06-14T05:33:12;5.73;;;4.03;;
21886;SDS011;11108;49.988;8.182;2023-06-14T05:35:37;4.83;;;4.43;;
21886;SDS011;11108;49.988;8.182;2023-06-14T05:38:03;6.97;;;4.40;;
21886;SDS011;11108;49.988;8.182;2023-06-14T05:40:28;4.83;;;4.33;;
21886;SDS011;11108;49.988;8.182;2023-06-14T05:42:53;4.70;;;4.20;;
21886;SDS011;11108;49.988;8.182;2023-06-14T05:45:18;14.13;;;4.93;;
21886;SDS011;11108;49.988;8.182;2023-06-14T05:47:44;6.33;;;4.47;;
21886;SDS011;11108;49.988;8.182;2023-06-14T05:50:09;5.10;;;4.60;;
21886;SDS011;11108;49.988;8.182;2023-06-14T05:52:34;9.13;;;4.70;;
21886;SDS011;11108;49.988;8.182;2023-06-14T05:55:01;4.10;;;3.70;;
21886;SDS011;11108;49.988;8.182;2023-06-14T05:57:27;6.67;;;4.17;;
21886;SDS011;11108;49.988;8.182;2023-06-14T05:59:52;6.93;;;4.47;;
21886;SDS011;11108;49.988;8.182;2023-06-14T06:02:17;4.20;;;3.77;;
21886;SDS011;11108;49.988;8.182;2023-06-14T06:04:42;3.70;;;3.40;;
21886;SDS011;11108;49.988;8.182;2023-06-14T06:07:08;6.43;;;3.90;;
21886;SDS011;11108;49.988;8.182;2023-06-14T06:09:33;4.83;;;3.63;;
21886;SDS011;11108;49.988;8.182;2023-06-14T06:11:58;4.50;;;3.83;;
21886;SDS011;11108;49.988;8.182;2023-06-14T06:14:23;5.37;;;3.70;;
21886;SDS011;11108;49.988;8.182;2023-06-14T06:16:49;4.00;;;3.60;;
21886;SDS011;11108;49.988;8.182;2023-06-14T06:19:14;4.33;;;3.70;;
21886;SDS011;11108;49.988;8.182;2023-06-14T06:21:39;4.00;;;3.63;;
21886;SDS011;11108;49.988;8.182;2023-06-14T06:24:04;3.73;;;3.43;;
21886;SDS011;11108;49.988;8.182;2023-06-14T06:26:30;4.80;;;3.40;;
21886;SDS011;11108;49.988;8.182;2023-06-14T06:28:55;5.27;;;3.60;;
21886;SDS011;11108;49.988;8.182;2023-06-14T06:31:22;5.50;;;3.53;;
21886;SDS011;11108;49.988;8.182;2023-06-14T06:33:47;4.53;;;3.20;;
21886;SDS011;11108;49.988;8.182;2023-06-14T06:36:12;3.57;;;3.23;;
21886;SDS011;11108;49.988;8.182;2023-06-14T06:38:37;6.03;;;3.73;;
21886;SDS011;11108;49.988;8.182;2023-06-14T06:41:03;3.70;;;3.07;;
21886;SDS011;11108;49.988;8.182;2023-06-14T06:43:28;3.87;;;3.27;;
21886;SDS011;11108;49.988;8.182;2023-06-14T06:45:53;3.90;;;3.50;;
21886;SDS011;11108;49.988;8.182;2023-06-14T06:48:18;5.07;;;3.43;;
21886;SDS011;11108;49.988;8.182;2023-06-14T06:50:43;3.70;;;3.40;;
21886;SDS011;11108;49.988;8.182;2023-06-14T06:53:09;3.83;;;3.50;;
21886;SDS011;11108;49.988;8.182;2023-06-14T06:55:34;4.07;;;3.50;;
21886;SDS011;11108;49.988;8.182;2023-06-14T06:57:59;6.00;;;3.50;;
21886;SDS011;11108;49.988;8.182;2023-06-14T07:00:25;3.70;;;3.37;;
21886;SDS011;11108;49.988;8.182;2023-06-14T07:02:50;6.83;;;3.90;;
21886;SDS011;11108;49.988;8.182;2023-06-14T07:05:15;5.20;;;3.70;;
21886;SDS011;11108;49.988;8.182;2023-06-14T07:07:41;5.47;;;4.00;;
21886;SDS011;11108;49.988;8.182;2023-06-14T07:10:06;4.57;;;3.80;;
21886;SDS011;11108;49.988;8.182;2023-06-14T07:12:32;5.40;;;3.57;;
21886;SDS011;11108;49.988;8.182;2023-06-14T07:14:59;3.83;;;3.33;;
21886;SDS011;11108;49.988;8.182;2023-06-14T07:17:24;4.53;;;3.07;;
21886;SDS011;11108;49.988;8.182;2023-06-14T07:19:49;4.30;;;3.63;;
21886;SDS011;11108;49.988;8.182;2023-06-14T07:22:15;5.83;;;3.93;;
21886;SDS011;11108;49.988;8.182;2023-06-14T07:24:41;3.73;;;3.43;;
21886;SDS011;11108;49.988;8.182;2023-06-14T07:27:07;5.27;;;3.57;;
21886;SDS011;11108;49.988;8.182;2023-06-14T07:29:32;6.80;;;3.30;;
21886;SDS011;11108;49.988;8.182;2023-06-14T07:31:57;4.10;;;3.27;;
21886;SDS011;11108;49.988;8.182;2023-06-14T07:34:22;4.33;;;2.93;;
21886;SDS011;11108;49.988;8.182;2023-06-14T07:36:48;5.97;;;3.57;;
21886;SDS011;11108;49.988;8.182;2023-06-14T07:39:13;4.63;;;3.43;;
21886;SDS011;11108;49.988;8.182;2023-06-14T07:41:38;3.80;;;3.07;;
21886;SDS011;11108;49.988;8.182;2023-06-14T07:44:03;3.33;;;2.93;;
21886;SDS011;11108;49.988;8.182;2023-06-14T07:46:29;3.50;;;3.00;;
21886;SDS011;11108;49.988;8.182;2023-06-14T07:48:55;3.40;;;2.90;;
21886;SDS011;11108;49.988;8.182;2023-06-14T07:51:20;3.50;;;3.10;;
21886;SDS011;11108;49.988;8.182;2023-06-14T07:53:47;7.53;;;3.33;;
21886;SDS011;11108;49.988;8.182;2023-06-14T07:56:12;3.03;;;2.77;;
21886;SDS011;11108;49.988;8.182;2023-06-14T07:58:37;4.03;;;3.23;;
21886;SDS011;11108;49.988;8.182;2023-06-14T08:01:03;3.53;;;3.23;;
21886;SDS011;11108;49.988;8.182;2023-06-14T08:03:31;3.00;;;2.63;;
21886;SDS011;11108;49.988;8.182;2023-06-14T08:05:56;4.87;;;2.97;;
21886;SDS011;11108;49.988;8.182;2023-06-14T08:08:21;3.30;;;3.10;;
21886;SDS011;11108;49.988;8.182;2023-06-14T08:10:46;5.93;;;3.00;;
21886;SDS011;11108;49.988;8.182;2023-06-14T08:13:12;2.43;;;2.33;;
21886;SDS011;11108;49.988;8.182;2023-06-14T08:15:37;6.00;;;2.83;;
21886;SDS011;11108;49.988;8.182;2023-06-14T08:18:02;2.50;;;2.30;;
21886;SDS011;11108;49.988;8.182;2023-06-14T08:20:27;5.43;;;2.50;;
21886;SDS011;11108;49.988;8.182;2023-06-14T08:22:53;2.80;;;2.57;;
21886;SDS011;11108;49.988;8.182;2023-06-14T08:25:21;4.07;;;2.67;;
21886;SDS011;11108;49.988;8.182;2023-06-14T08:27:47;2.43;;;2.20;;
21886;SDS011;11108;49.988;8.182;2023-06-14T08:30:12;2.60;;;2.40;;
21886;SDS011;11108;49.988;8.182;2023-06-14T08:32:37;2.83;;;2.40;;
21886;SDS011;11108;49.988;8.182;2023-06-14T08:35:03;2.33;;;2.23;;
21886;SDS011;11108;49.988;8.182;2023-06-14T08:37:28;2.43;;;2.20;;
21886;SDS011;11108;49.988;8.182;2023-06-14T08:39:54;3.10;;;2.80;;
21886;SDS011;11108;49.988;8.182;2023-06-14T08:42:21;3.33;;;2.57;;
21886;SDS011;11108;49.988;8.182;2023-06-14T08:44:46;3.30;;;2.80;;
21886;SDS011;11108;49.988;8.182;2023-06-14T08:47:11;3.43;;;2.57;;
21886;SDS011;11108;49.988;8.182;2023-06-14T08:49:38;3.80;;;2.60;;
21886;SDS011;11108;49.988;8.182;2023-06-14T08:52:04;3.80;;;2.40;;
21886;SDS011;11108;49.988;8.182;2023-06-14T08:54:30;3.50;;;2.40;;
21886;SDS011;11108;49.988;8.182;2023-06-14T08:56:56;6.13;;;2.77;;
21886;SDS011;11108;49.988;8.182;2023-06-14T08:59:24;2.97;;;2.60;;
21886;SDS011;11108;49.988;8.182;2023-06-14T09:01:49;2.70;;;2.50;;
21886;SDS011;11108;49.988;8.182;2023-06-14T09:04:17;2.37;;;2.17;;
21886;SDS011;11108;49.988;8.182;2023-06-14T09:06:42;2.50;;;2.30;;
21886;SDS011;11108;49.988;8.182;2023-06-14T09:09:08;3.20;;;2.60;;
21886;SDS011;11108;49.988;8.182;2023-06-14T09:11:34;2.47;;;2.30;;
21886;SDS011;11108;49.988;8.182;2023-06-14T09:14:00;2.37;;;2.17;;
21886;SDS011;11108;49.988;8.182;2023-06-14T09:16:25;2.50;;;2.30;;
21886;SDS011;11108;49.988;8.182;2023-06-14T09:18:51;3.17;;;2.30;;
21886;SDS011;11108;49.988;8.182;2023-06-14T09:21:16;2.40;;;2.20;;
21886;SDS011;11108;49.988;8.182;2023-06-14T09:23:43;2.27;;;2.13;;
21886;SDS011;11108;49.988;8.182;2023-06-14T09:26:09;2.43;;;2.20;;
21886;SDS011;11108;49.988;8.182;2023-06-14T09:28:35;2.07;;;1.97;;
21886;SDS011;11108;49.988;8.182;2023-06-14T09:31:00;2.60;;;2.00;;
21886;SDS011;11108;49.988;8.182;2023-06-14T09:33:25;2.37;;;2.00;;
21886;SDS011;11108;49.988;8.182;2023-06-14T09:35:52;2.10;;;1.97;;
21886;SDS011;11108;49.988;8.182;2023-06-14T09:38:17;2.50;;;1.80;;
21886;SDS011;11108;49.988;8.182;2023-06-14T09:40:43;2.80;;;2.17;;
21886;SDS011;11108;49.988;8.182;2023-06-14T09:43:08;2.13;;;1.93;;
21886;SDS011;11108;49.988;8.182;2023-06-14T09:45:34;2.30;;;2.20;;
21886;SDS011;11108;49.988;8.182;2023-06-14T09:48:00;3.13;;;1.90;;
21886;SDS011;11108;49.988;8.182;2023-06-14T09:50:25;3.40;;;2.20;;
21886;SDS011;11108;49.988;8.182;2023-06-14T09:52:51;4.37;;;2.17;;
21886;SDS011;11108;49.988;8.182;2023-06-14T09:55:17;5.03;;;2.10;;
21886;SDS011;11108;49.988;8.182;2023-06-14T09:57:43;3.50;;;2.00;;
21886;SDS011;11108;49.988;8.182;2023-06-14T10:00:10;3.33;;;1.90;;
21886;SDS011;11108;49.988;8.182;2023-06-14T10:02:38;1.70;;;1.60;;
21886;SDS011;11108;49.988;8.182;2023-06-14T10:05:05;2.23;;;1.90;;
21886;SDS011;11108;49.988;8.182;2023-06-14T10:07:52;1.93;;;1.83;;
21886;SDS011;11108;49.988;8.182;2023-06-14T10:10:17;2.30;;;2.03;;
21886;SDS011;11108;49.988;8.182;2023-06-14T10:12:43;2.17;;;1.97;;
21886;SDS011;11108;49.988;8.182;2023-06-14T10:15:09;1.90;;;1.80;;
21886;SDS011;11108;49.988;8.182;2023-06-14T10:17:40;2.30;;;2.20;;
21886;SDS011;11108;49.988;8.182;2023-06-14T10:22:49;2.00;;;1.90;;
21886;SDS011;11108;49.988;8.182;2023-06-14T10:25:28;2.07;;;1.80;;
21886;SDS011;11108;49.988;8.182;2023-06-14T10:28:01;1.60;;;1.50;;
21886;SDS011;11108;49.988;8.182;2023-06-14T10:30:27;1.90;;;1.80;;
21886;SDS011;11108;49.988;8.182;2023-06-14T10:33:05;1.77;;;1.67;;
21886;SDS011;11108;49.988;8.182;2023-06-14T10:35:31;2.87;;;2.07;;
21886;SDS011;11108;49.988;8.182;2023-06-14T10:38:05;1.83;;;1.70;;
21886;SDS011;11108;49.988;8.182;2023-06-14T10:40:31;3.50;;;1.60;;
21886;SDS011;11108;49.988;8.182;2023-06-14T10:42:56;4.00;;;2.10;;
21886;SDS011;11108;49.988;8.182;2023-06-14T10:45:21;2.20;;;2.10;;
21886;SDS011;11108;49.988;8.182;2023-06-14T10:47:47;2.27;;;2.07;;
21886;SDS011;11108;49.988;8.182;2023-06-14T10:50:13;2.50;;;2.00;;
21886;SDS011;11108;49.988;8.182;2023-06-14T10:52:42;2.27;;;2.07;;
21886;SDS011;11108;49.988;8.182;2023-06-14T11:00:11;2.23;;;2.13;;
21886;SDS011;11108;49.988;8.182;2023-06-14T11:05:16;1.47;;;1.47;;
21886;SDS011;11108;49.988;8.182;2023-06-14T11:07:55;1.80;;;1.67;;
21886;SDS011;11108;49.988;8.182;2023-06-14T11:10:32;2.10;;;2.00;;
21886;SDS011;11108;49.988;8.182;2023-06-14T11:13:01;2.53;;;1.60;;
21886;SDS011;11108;49.988;8.182;2023-06-14T11:15:30;1.90;;;1.80;;
21886;SDS011;11108;49.988;8.182;2023-06-14T11:17:56;1.70;;;1.60;;
21886;SDS011;11108;49.988;8.182;2023-06-14T11:20:24;1.87;;;1.70;;
21886;SDS011;11108;49.988;8.182;2023-06-14T11:22:51;2.40;;;1.73;;
21886;SDS011;11108;49.988;8.182;2023-06-14T11:25:16;1.93;;;1.70;;
21886;SDS011;11108;49.988;8.182;2023-06-14T11:27:42;2.47;;;1.67;;
21886;SDS011;11108;49.988;8.182;2023-06-14T11:30:07;2.03;;;1.93;;
21886;SDS011;11108;49.988;8.182;2023-06-14T11:32:34;1.97;;;1.80;;
21886;SDS011;11108;49.988;8.182;2023-06-14T11:34:59;6.40;;;3.20;;
21886;SDS011;11108;49.988;8.182;2023-06-14T11:37:25;8.03;;;4.57;;
21886;SDS011;11108;49.988;8.182;2023-06-14T11:39:51;13.30;;;5.70;;
21886;SDS011;11108;49.988;8.182;2023-06-14T11:42:16;13.00;;;5.70;;
21886;SDS011;11108;49.988;8.182;2023-06-14T11:44:41;13.97;;;7.20;;
21886;SDS011;11108;49.988;8.182;2023-06-14T11:47:06;12.57;;;5.83;;
21886;SDS011;11108;49.988;8.182;2023-06-14T11:49:35;10.43;;;5.20;;
21886;SDS011;11108;49.988;8.182;2023-06-14T11:52:01;8.37;;;5.63;;
21886;SDS011;11108;49.988;8.182;2023-06-14T11:54:26;8.77;;;4.50;;
21886;SDS011;11108;49.988;8.182;2023-06-14T11:56:51;6.43;;;3.93;;
21886;SDS011;11108;49.988;8.182;2023-06-14T11:59:16;6.60;;;4.13;;
21886;SDS011;11108;49.988;8.182;2023-06-14T12:01:42;6.10;;;3.60;;
21886;SDS011;11108;49.988;8.182;2023-06-14T12:04:08;4.50;;;3.60;;
21886;SDS011;11108;49.988;8.182;2023-06-14T12:06:33;6.73;;;3.17;;
21886;SDS011;11108;49.988;8.182;2023-06-14T12:09:04;7.53;;;3.60;;
21886;SDS011;11108;49.988;8.182;2023-06-14T12:11:32;6.77;;;2.97;;
21886;SDS011;11108;49.988;8.182;2023-06-14T12:13:58;5.93;;;3.30;;
21886;SDS011;11108;49.988;8.182;2023-06-14T12:16:29;8.27;;;3.20;;
21886;SDS011;11108;49.988;8.182;2023-06-14T12:18:55;3.47;;;2.50;;
21886;SDS011;11108;49.988;8.182;2023-06-14T12:21:22;4.63;;;2.90;;
21886;SDS011;11108;49.988;8.182;2023-06-14T12:23:48;3.73;;;2.53;;
21886;SDS011;11108;49.988;8.182;2023-06-14T12:26:17;2.90;;;2.70;;
21886;SDS011;11108;49.988;8.182;2023-06-14T12:28:43;2.80;;;2.53;;
21886;SDS011;11108;49.988;8.182;2023-06-14T12:31:09;3.03;;;2.60;;
21886;SDS011;11108;49.988;8.182;2023-06-14T12:33:34;3.03;;;2.70;;
21886;SDS011;11108;49.988;8.182;2023-06-14T12:35:59;2.90;;;2.30;;
21886;SDS011;11108;49.988;8.182;2023-06-14T12:38:24;2.10;;;2.00;;
21886;SDS011;11108;49.988;8.182;2023-06-14T12:40:50;2.70;;;2.47;;
21886;SDS011;11108;49.988;8.182;2023-06-14T12:43:15;4.00;;;2.40;;
21886;SDS011;11108;49.988;8.182;2023-06-14T12:45:40;6.57;;;2.50;;
21886;SDS011;11108;49.988;8.182;2023-06-14T12:48:05;3.90;;;2.53;;
21886;SDS011;11108;49.988;8.182;2023-06-14T12:50:31;3.72;;;2.20;;
21886;SDS011;11108;49.988;8.182;2023-06-14T12:52:56;3.47;;;2.10;;
21886;SDS011;11108;49.988;8.182;2023-06-14T12:55:21;2.37;;;2.23;;
21886;SDS011;11108;49.988;8.182;2023-06-14T12:57:46;2.55;;;2.17;;
21886;SDS011;11108;49.988;8.182;2023-06-14T13:00:14;2.53;;;2.10;;
21886;SDS011;11108;49.988;8.182;2023-06-14T13:02:39;2.50;;;2.22;;
21886;SDS011;11108;49.988;8.182;2023-06-14T13:05:05;3.47;;;2.13;;
21886;SDS011;11108;49.988;8.182;2023-06-14T13:07:30;2.53;;;2.33;;
21886;SDS011;11108;49.988;8.182;2023-06-14T13:09:55;2.77;;;2.50;;
21886;SDS011;11108;49.988;8.182;2023-06-14T13:12:20;4.67;;;2.17;;
21886;SDS011;11108;49.988;8.182;2023-06-14T13:14:46;2.42;;;2.28;;
21886;SDS011;11108;49.988;8.182;2023-06-14T13:17:11;3.90;;;2.53;;
21886;SDS011;11108;49.988;8.182;2023-06-14T13:19:36;2.67;;;2.10;;
21886;SDS011;11108;49.988;8.182;2023-06-14T13:22:01;2.97;;;2.37;;
21886;SDS011;11108;49.988;8.182;2023-06-14T13:24:27;2.73;;;2.47;;
21886;SDS011;11108;49.988;8.182;2023-06-14T13:26:54;3.30;;;2.30;;
21886;SDS011;11108;49.988;8.182;2023-06-14T13:29:19;2.95;;;2.10;;
21886;SDS011;11108;49.988;8.182;2023-06-14T13:31:44;2.60;;;2.45;;
21886;SDS011;11108;49.988;8.182;2023-06-14T13:34:10;2.40;;;2.20;;
21886;SDS011;11108;49.988;8.182;2023-06-14T13:36:35;2.10;;;2.00;;
21886;SDS011;11108;49.988;8.182;2023-06-14T13:39:00;2.47;;;2.20;;
21886;SDS011;11108;49.988;8.182;2023-06-14T13:41:27;3.03;;;2.35;;
21886;SDS011;11108;49.988;8.182;2023-06-14T13:43:56;2.33;;;2.23;;
21886;SDS011;11108;49.988;8.182;2023-06-14T13:46:21;2.97;;;1.93;;
21886;SDS011;11108;49.988;8.182;2023-06-14T13:48:47;2.50;;;2.30;;
21886;SDS011;11108;49.988;8.182;2023-06-14T13:51:12;2.33;;;2.20;;
21886;SDS011;11108;49.988;8.182;2023-06-14T13:53:37;2.78;;;2.30;;
21886;SDS011;11108;49.988;8.182;2023-06-14T13:56:03;3.25;;;2.50;;
21886;SDS011;11108;49.988;8.182;2023-06-14T13:58:28;3.30;;;2.37;;
21886;SDS011;11108;49.988;8.182;2023-06-14T14:00:54;2.50;;;2.30;;
21886;SDS011;11108;49.988;8.182;2023-06-14T14:03:19;2.37;;;2.17;;
21886;SDS011;11108;49.988;8.182;2023-06-14T14:05:44;2.43;;;2.10;;
21886;SDS011;11108;49.988;8.182;2023-06-14T14:08:10;2.83;;;2.63;;
21886;SDS011;11108;49.988;8.182;2023-06-14T14:10:35;2.17;;;2.07;;
21886;SDS011;11108;49.988;8.182;2023-06-14T14:13:00;3.20;;;2.77;;
21886;SDS011;11108;49.988;8.182;2023-06-14T14:15:26;2.57;;;2.40;;
21886;SDS011;11108;49.988;8.182;2023-06-14T14:17:51;3.67;;;2.43;;
21886;SDS011;11108;49.988;8.182;2023-06-14T14:20:19;2.90;;;2.20;;
21886;SDS011;11108;49.988;8.182;2023-06-14T14:22:44;4.30;;;2.87;;
21886;SDS011;11108;49.988;8.182;2023-06-14T14:25:09;2.55;;;2.40;;
21886;SDS011;11108;49.988;8.182;2023-06-14T14:27:35;2.65;;;2.45;;
21886;SDS011;11108;49.988;8.182;2023-06-14T14:30:01;2.80;;;2.60;;
21886;SDS011;11108;49.988;8.182;2023-06-14T14:32:26;2.38;;;2.20;;
21886;SDS011;11108;49.988;8.182;2023-06-14T14:34:54;2.87;;;2.50;;
21886;SDS011;11108;49.988;8.182;2023-06-14T14:37:19;2.90;;;2.40;;
21886;SDS011;11108;49.988;8.182;2023-06-14T14:39:45;2.50;;;2.30;;
21886;SDS011;11108;49.988;8.182;2023-06-14T14:42:10;5.38;;;2.80;;
21886;SDS011;11108;49.988;8.182;2023-06-14T14:44:37;2.83;;;2.63;;
21886;SDS011;11108;49.988;8.182;2023-06-14T14:47:02;2.50;;;2.40;;
21886;SDS011;11108;49.988;8.182;2023-06-14T14:49:28;4.07;;;2.80;;
21886;SDS011;11108;49.988;8.182;2023-06-14T14:51:53;2.83;;;2.60;;
21886;SDS011;11108;49.988;8.182;2023-06-14T14:54:18;2.83;;;2.57;;
21886;SDS011;11108;49.988;8.182;2023-06-14T14:56:43;2.67;;;2.47;;
21886;SDS011;11108;49.988;8.182;2023-06-14T14:59:08;2.88;;;2.70;;